ΕΜΥ, Εθνική Μετεωρολογική Υπηρεσία - Δελτία Καιρού, Προγνώσεις

ΑΕΡΟΝΑΥΤΙΛΙΑ

GREEK AIRPORTS CODES

LGIR 050420Z 25013G25KT 9999 -RA FEW016 BKN020 11/06 Q1008NOSIG =

EUROPEAN AIRPORTS CODES

LFPO 050430Z 32005KT 9999 OVC045 07/03 Q1040 NOSIG=